createdAt,value
2023-02-20T00:02:00.053Z,100971.06
2023-02-20T00:05:02.935Z,100981.12
2023-02-20T00:08:06.187Z,100995.78
2023-02-20T00:11:09.704Z,101008.78
2023-02-20T00:14:11.959Z,101001.00
2023-02-20T00:17:15.768Z,101008.59
2023-02-20T00:20:21.778Z,101011.53
2023-02-20T00:23:25.238Z,101010.72
2023-02-20T00:26:27.674Z,101001.44
2023-02-20T00:29:34.054Z,101000.66
2023-02-20T00:32:37.429Z,101003.41
2023-02-20T00:35:40.190Z,101009.87
2023-02-20T00:38:44.405Z,101020.66
2023-02-20T00:41:48.983Z,101033.47
2023-02-20T00:44:52.191Z,101032.75
2023-02-20T00:47:55.095Z,101046.00
2023-02-20T00:50:59.782Z,101049.44
2023-02-20T00:54:03.875Z,101055.41
2023-02-20T00:57:06.414Z,101059.78
2023-02-20T01:00:16.781Z,101069.44
2023-02-20T01:03:19.184Z,101066.09
2023-02-20T01:06:22.119Z,101064.50
2023-02-20T01:09:28.070Z,101073.59
2023-02-20T01:12:30.956Z,101059.91
2023-02-20T01:15:33.488Z,101064.34
2023-02-20T01:18:36.489Z,101061.56
2023-02-20T01:21:38.862Z,101066.91
2023-02-20T01:24:43.249Z,101071.91
2023-02-20T01:27:45.400Z,101081.22
2023-02-20T01:30:50.336Z,101076.91
2023-02-20T01:33:52.628Z,101071.19
2023-02-20T01:36:55.547Z,101083.91
2023-02-20T01:40:01.440Z,101092.31
2023-02-20T01:43:04.707Z,101098.41
2023-02-20T01:46:29.655Z,101093.56
2023-02-20T01:49:50.895Z,101093.78
2023-02-20T01:52:58.606Z,101091.66
2023-02-20T01:56:08.404Z,101099.59
2023-02-20T01:59:12.090Z,101106.16
2023-02-20T02:02:15.847Z,101110.34
2023-02-20T02:05:19.814Z,101113.16
2023-02-20T02:08:25.032Z,101108.41
2023-02-20T02:11:28.680Z,101097.22
2023-02-20T02:14:31.532Z,101101.00
2023-02-20T02:17:47.991Z,101094.69
2023-02-20T02:21:15.030Z,101100.78
2023-02-20T02:24:32.320Z,101098.03
2023-02-20T02:27:53.541Z,101098.50
2023-02-20T02:31:10.659Z,101102.69
2023-02-20T02:34:50.861Z,101107.13
2023-02-20T02:37:59.749Z,101112.59
2023-02-20T02:41:15.917Z,101114.19
2023-02-20T02:44:32.372Z,101119.50
2023-02-20T02:48:05.306Z,101122.97
2023-02-20T02:51:17.817Z,101130.53
2023-02-20T02:54:27.542Z,101127.94
2023-02-20T02:57:32.181Z,101126.91
2023-02-20T03:00:45.624Z,101135.88
2023-02-20T03:03:50.864Z,101140.41
2023-02-20T03:06:59.303Z,101143.62
2023-02-20T03:10:11.350Z,101152.53
2023-02-20T03:13:15.858Z,101149.19
2023-02-20T03:16:26.365Z,101147.16
2023-02-20T03:19:38.212Z,101148.06
2023-02-20T03:22:58.332Z,101133.56
2023-02-20T03:26:05.628Z,101130.88
2023-02-20T03:29:24.772Z,101124.91
2023-02-20T03:32:51.487Z,101133.75
2023-02-20T03:36:16.503Z,101141.38
2023-02-20T03:39:45.010Z,101143.22
2023-02-20T03:43:13.165Z,101139.84
2023-02-20T03:46:22.893Z,101150.09
2023-02-20T03:49:33.241Z,101147.62
2023-02-20T03:52:36.756Z,101154.56
2023-02-20T03:55:39.818Z,101164.81
2023-02-20T03:58:50.298Z,101165.66
2023-02-20T04:01:57.483Z,101159.50
2023-02-20T04:05:06.981Z,101152.75
2023-02-20T04:08:18.736Z,101150.16
2023-02-20T04:11:28.774Z,101151.84
2023-02-20T04:14:32.326Z,101143.94
2023-02-20T04:17:56.817Z,101147.44
2023-02-20T04:21:02.598Z,101154.41
2023-02-20T04:24:14.029Z,101143.22
2023-02-20T04:27:17.294Z,101151.38
2023-02-20T04:30:21.754Z,101159.03
2023-02-20T04:33:24.783Z,101160.78
2023-02-20T04:36:28.219Z,101168.50
2023-02-20T04:39:30.761Z,101188.19
2023-02-20T04:42:34.008Z,101188.75
2023-02-20T04:45:36.397Z,101169.37
2023-02-20T04:48:40.196Z,101167.47
2023-02-20T04:51:42.790Z,101153.44
2023-02-20T04:54:46.837Z,101141.44
2023-02-20T04:57:50.488Z,101122.19
2023-02-20T05:00:53.531Z,101126.88
2023-02-20T05:03:56.097Z,101126.03
2023-02-20T05:06:58.896Z,101121.50
2023-02-20T05:10:01.095Z,101115.41
2023-02-20T05:13:04.037Z,101133.34
2023-02-20T05:16:06.873Z,101134.59
2023-02-20T05:19:09.754Z,101139.72
2023-02-20T05:22:19.038Z,101147.97
2023-02-20T05:25:21.830Z,101146.09
2023-02-20T05:28:24.047Z,101154.19
2023-02-20T05:31:27.595Z,101150.00
2023-02-20T05:34:30.662Z,101154.38
2023-02-20T05:37:34.908Z,101152.59
2023-02-20T05:40:37.432Z,101150.09
2023-02-20T05:43:40.045Z,101151.59
2023-02-20T05:46:43.087Z,101155.84
2023-02-20T05:49:46.797Z,101154.91
2023-02-20T05:52:49.248Z,101158.59
2023-02-20T05:55:52.601Z,101159.81
2023-02-20T05:58:55.154Z,101171.75
2023-02-20T06:01:59.715Z,101165.78
2023-02-20T06:05:02.335Z,101173.28
2023-02-20T06:08:04.901Z,101184.34
2023-02-20T06:11:09.741Z,101179.75
2023-02-20T06:14:12.381Z,101175.44
2023-02-20T06:17:16.551Z,101187.53
2023-02-20T06:20:20.826Z,101198.00
2023-02-20T06:23:24.772Z,101202.31
2023-02-20T06:26:27.161Z,101201.94
2023-02-20T06:29:30.249Z,101200.84
2023-02-20T06:32:32.570Z,101191.16
2023-02-20T06:35:35.548Z,101195.63
2023-02-20T06:38:37.860Z,101202.03
2023-02-20T06:41:41.125Z,101201.84
2023-02-20T06:44:43.978Z,101199.25
2023-02-20T06:47:46.484Z,101198.94
2023-02-20T06:50:48.809Z,101202.81
2023-02-20T06:53:52.548Z,101199.09
2023-02-20T06:56:57.053Z,101208.09
2023-02-20T07:00:00.021Z,101194.50
2023-02-20T07:03:02.811Z,101196.56
2023-02-20T07:06:06.072Z,101189.69
2023-02-20T07:09:08.685Z,101198.78
2023-02-20T07:12:13.533Z,101211.25
2023-02-20T07:15:19.649Z,101204.66
2023-02-20T07:18:25.605Z,101196.50
2023-02-20T07:21:31.556Z,101207.16
2023-02-20T07:24:36.784Z,101198.91
2023-02-20T07:27:39.153Z,101183.66
2023-02-20T07:30:42.181Z,101188.41
2023-02-20T07:33:44.736Z,101184.38
2023-02-20T07:36:48.180Z,101179.78
2023-02-20T07:39:50.492Z,101185.91
2023-02-20T07:42:53.721Z,101184.59
2023-02-20T07:45:56.480Z,101185.19
2023-02-20T07:49:02.235Z,101191.97
2023-02-20T07:52:04.732Z,101187.31
2023-02-20T07:55:08.029Z,101197.62
2023-02-20T07:58:10.484Z,101193.72
2023-02-20T08:01:14.056Z,101186.88
2023-02-20T08:04:17.825Z,101189.63
2023-02-20T08:07:20.433Z,101182.56
2023-02-20T08:10:28.336Z,101187.81
2023-02-20T08:13:31.056Z,101189.66
2023-02-20T08:16:34.074Z,101195.87
2023-02-20T08:19:37.175Z,101200.44
2023-02-20T08:22:42.062Z,101206.94
2023-02-20T08:25:44.914Z,101188.34
2023-02-20T08:28:49.208Z,101183.94
2023-02-20T08:31:51.764Z,101186.97
2023-02-20T08:34:54.848Z,101193.34
2023-02-20T08:37:57.272Z,101178.56
2023-02-20T08:41:02.872Z,101159.41
2023-02-20T08:44:08.604Z,101172.34
2023-02-20T08:47:11.954Z,101175.34
2023-02-20T08:51:02.719Z,101181.19
2023-02-20T08:54:06.894Z,101190.03
2023-02-20T08:57:10.387Z,101176.91
2023-02-20T09:00:15.608Z,101177.25
2023-02-20T09:03:18.371Z,101161.66
2023-02-20T09:06:22.216Z,101173.16
2023-02-20T09:09:25.402Z,101164.12
2023-02-20T09:12:36.894Z,101165.69
2023-02-20T09:15:40.234Z,101160.22
2023-02-20T09:18:44.243Z,101155.16
2023-02-20T09:21:49.513Z,101164.78
2023-02-20T09:24:53.064Z,101160.88
2023-02-20T09:27:55.632Z,101163.66
2023-02-20T09:31:00.765Z,101163.97
2023-02-20T09:34:04.738Z,101151.69
2023-02-20T09:37:08.678Z,101153.09
2023-02-20T09:40:13.775Z,101147.12
2023-02-20T09:43:44.586Z,101153.28
2023-02-20T09:46:50.740Z,101155.22
2023-02-20T09:50:00.123Z,101153.06
2023-02-20T09:53:11.590Z,101134.16
2023-02-20T09:56:21.907Z,101139.34
2023-02-20T09:59:30.572Z,101146.22
2023-02-20T10:02:40.028Z,101123.69
2023-02-20T10:05:44.425Z,101122.72
2023-02-20T10:08:51.457Z,101112.88
2023-02-20T10:12:05.563Z,101096.47
2023-02-20T10:15:23.517Z,101101.81
2023-02-20T10:18:33.708Z,101101.87
2023-02-20T10:22:00.879Z,101097.31
2023-02-20T10:25:30.075Z,101095.75
2023-02-20T10:28:34.197Z,101085.38
2023-02-20T10:32:09.684Z,101080.84
2023-02-20T10:35:18.362Z,101083.28
2023-02-20T10:38:23.105Z,101075.81
2023-02-20T10:41:32.813Z,101077.44
2023-02-20T10:44:50.113Z,101073.28
2023-02-20T10:48:08.035Z,101071.25
2023-02-20T10:51:42.691Z,101054.25
2023-02-20T10:54:57.168Z,101053.34
2023-02-20T10:58:08.853Z,101045.66
2023-02-20T11:01:16.043Z,101034.72
2023-02-20T11:04:27.055Z,101029.00
2023-02-20T11:07:29.540Z,101024.31
2023-02-20T11:10:34.343Z,101018.56
2023-02-20T11:13:36.713Z,101018.62
2023-02-20T11:16:43.223Z,101011.94
2023-02-20T11:19:47.078Z,100989.78
2023-02-20T11:22:50.188Z,100985.50
2023-02-20T11:25:52.607Z,100976.84
2023-02-20T11:29:17.284Z,100961.91
2023-02-20T11:32:35.218Z,100969.03
2023-02-20T11:35:40.741Z,100961.19
2023-02-20T11:38:43.601Z,100955.59
2023-02-20T11:41:46.277Z,100951.38
2023-02-20T11:45:12.521Z,100941.19
2023-02-20T11:48:17.778Z,100941.47
2023-02-20T11:51:41.484Z,100932.59
2023-02-20T11:54:46.001Z,100916.41
2023-02-20T11:57:51.239Z,100915.50
2023-02-20T12:00:55.515Z,100900.94
2023-02-20T12:04:00.225Z,100893.50
2023-02-20T12:07:19.908Z,100881.78
2023-02-20T12:10:31.524Z,100871.44
2023-02-20T12:13:41.469Z,100862.84
2023-02-20T12:16:50.124Z,100850.03
2023-02-20T12:20:11.540Z,100846.94
2023-02-20T12:23:46.829Z,100847.50
2023-02-20T12:26:58.330Z,100847.72
2023-02-20T12:30:16.253Z,100842.06
2023-02-20T12:33:48.556Z,100855.09
2023-02-20T12:37:02.771Z,100834.59
2023-02-20T12:40:20.610Z,100842.34
2023-02-20T12:43:26.154Z,100830.97
2023-02-20T12:46:44.490Z,100838.28
2023-02-20T12:50:05.791Z,100843.87
2023-02-20T12:53:19.928Z,100827.75
2023-02-20T12:57:00.672Z,100819.41
2023-02-20T13:00:32.241Z,100825.50
2023-02-20T13:03:49.687Z,100814.44
2023-02-20T13:07:10.320Z,100813.09
2023-02-20T13:10:22.026Z,100814.91
2023-02-20T13:13:30.243Z,100805.22
2023-02-20T13:17:16.950Z,100816.59
2023-02-20T13:20:33.447Z,100824.41
2023-02-20T13:23:38.138Z,100814.06
2023-02-20T13:26:40.461Z,100803.53
2023-02-20T13:30:19.527Z,100800.16
2023-02-20T13:33:29.284Z,100803.63
2023-02-20T13:36:42.060Z,100789.72
2023-02-20T13:39:44.315Z,100788.88
2023-02-20T13:42:46.810Z,100787.94
2023-02-20T13:46:11.736Z,100790.34
2023-02-20T13:49:49.616Z,100778.91
2023-02-20T13:52:56.921Z,100786.25
2023-02-20T13:55:59.343Z,100787.31
2023-02-20T13:59:01.789Z,100779.19
2023-02-20T14:02:15.881Z,100763.84
2023-02-20T14:05:25.744Z,100738.22
2023-02-20T14:08:28.789Z,100730.06
2023-02-20T14:11:34.991Z,100720.56
2023-02-20T14:14:45.944Z,100721.97
2023-02-20T14:17:51.161Z,100730.81
2023-02-20T14:21:21.221Z,100734.28
2023-02-20T14:24:27.527Z,100741.87
2023-02-20T14:27:33.097Z,100752.00
2023-02-20T14:30:35.973Z,100735.97
2023-02-20T14:33:38.330Z,100730.38
2023-02-20T14:36:43.880Z,100716.88
2023-02-20T14:40:01.270Z,100718.56
2023-02-20T14:43:09.836Z,100715.06
2023-02-20T14:46:25.623Z,100698.19
2023-02-20T14:49:31.270Z,100707.16
2023-02-20T14:52:33.754Z,100710.84
2023-02-20T14:55:36.317Z,100710.28
2023-02-20T14:58:38.794Z,100713.22
2023-02-20T15:01:41.577Z,100714.06
2023-02-20T15:04:55.829Z,100704.28
2023-02-20T15:08:18.567Z,100704.91
2023-02-20T15:11:21.120Z,100685.09
2023-02-20T15:14:26.338Z,100690.34
2023-02-20T15:17:34.448Z,100679.69
2023-02-20T15:20:41.385Z,100668.59
2023-02-20T15:23:45.782Z,100669.19
2023-02-20T15:26:48.388Z,100672.22
2023-02-20T15:30:20.681Z,100676.56
2023-02-20T15:33:23.275Z,100668.22
2023-02-20T15:36:26.357Z,100669.03
2023-02-20T15:42:31.376Z,100643.13
2023-02-20T15:45:35.575Z,100653.28
2023-02-20T15:48:38.185Z,100647.91
2023-02-20T15:51:42.482Z,100648.00
2023-02-20T15:54:55.673Z,100637.59
2023-02-20T15:57:59.239Z,100642.12
2023-02-20T16:01:01.433Z,100631.53
2023-02-20T16:04:05.423Z,100624.88
2023-02-20T16:07:07.770Z,100625.62
2023-02-20T16:10:12.470Z,100620.19
2023-02-20T16:13:29.011Z,100616.34
2023-02-20T16:16:42.585Z,100593.22
2023-02-20T16:19:45.035Z,100595.97
2023-02-20T16:22:47.551Z,100589.37
2023-02-20T16:25:50.888Z,100593.37
2023-02-20T16:28:59.024Z,100585.25
2023-02-20T16:32:01.235Z,100569.97
2023-02-20T16:35:04.290Z,100574.50
2023-02-20T16:38:06.846Z,100572.13
2023-02-20T16:41:11.723Z,100570.62
2023-02-20T16:44:27.884Z,100572.94
2023-02-20T16:47:31.377Z,100578.72
2023-02-20T16:50:34.731Z,100566.81
2023-02-20T16:53:37.380Z,100569.00
2023-02-20T16:56:39.697Z,100565.06
2023-02-20T16:59:42.681Z,100552.25
2023-02-20T17:02:45.675Z,100566.75
2023-02-20T17:05:48.283Z,100560.44
2023-02-20T17:08:50.945Z,100559.19
2023-02-20T17:11:53.482Z,100559.69
2023-02-20T17:14:57.866Z,100556.38
2023-02-20T17:18:00.567Z,100560.53
2023-02-20T17:21:02.752Z,100550.75
2023-02-20T17:24:05.738Z,100551.66
2023-02-20T17:27:08.535Z,100544.81
2023-02-20T17:30:11.564Z,100544.53
2023-02-20T17:33:15.939Z,100534.75
2023-02-20T17:36:18.827Z,100545.63
2023-02-20T17:39:23.349Z,100556.72
2023-02-20T17:42:26.694Z,100546.59
2023-02-20T17:45:28.835Z,100554.31
2023-02-20T17:48:31.321Z,100541.97
2023-02-20T17:51:33.774Z,100542.13
2023-02-20T17:54:36.851Z,100543.34
2023-02-20T17:57:39.166Z,100545.22
2023-02-20T18:00:41.930Z,100535.50
2023-02-20T18:03:47.075Z,100538.69
2023-02-20T18:06:49.675Z,100540.59
2023-02-20T18:09:52.200Z,100527.63
2023-02-20T18:13:03.492Z,100531.69
2023-02-20T18:16:06.289Z,100527.22
2023-02-20T18:19:10.615Z,100521.53
2023-02-20T18:22:13.417Z,100515.63
2023-02-20T18:25:17.296Z,100499.34
2023-02-20T18:28:19.765Z,100495.06
2023-02-20T18:31:23.697Z,100493.75
2023-02-20T18:34:28.321Z,100500.12
2023-02-20T18:37:30.877Z,100489.75
2023-02-20T18:40:33.740Z,100484.91
2023-02-20T18:43:36.672Z,100480.69
2023-02-20T18:46:42.137Z,100473.84
2023-02-20T18:49:48.078Z,100469.09
2023-02-20T18:52:50.939Z,100468.47
2023-02-20T18:55:53.085Z,100452.72
2023-02-20T18:58:55.701Z,100454.00
2023-02-20T19:01:58.904Z,100450.19
2023-02-20T19:05:01.418Z,100444.91
2023-02-20T19:08:05.067Z,100444.59
2023-02-20T19:11:07.663Z,100444.31
2023-02-20T19:14:09.826Z,100434.09
2023-02-20T19:17:12.668Z,100437.16
2023-02-20T19:20:26.273Z,100429.94
2023-02-20T19:23:30.270Z,100438.91
2023-02-20T19:26:32.468Z,100448.06
2023-02-20T19:29:35.683Z,100445.97
2023-02-20T19:32:38.847Z,100430.34
2023-02-20T19:35:41.832Z,100432.63
2023-02-20T19:38:44.463Z,100427.22
2023-02-20T19:41:50.954Z,100407.44
2023-02-20T19:44:55.257Z,100411.13
2023-02-20T19:47:57.811Z,100406.53
2023-02-20T19:51:00.351Z,100413.84
2023-02-20T19:54:02.792Z,100408.53
2023-02-20T19:57:05.326Z,100404.25
2023-02-20T20:00:10.794Z,100402.66
2023-02-20T20:03:14.303Z,100404.16
2023-02-20T20:06:18.314Z,100398.06
2023-02-20T20:09:35.222Z,100393.78
2023-02-20T20:12:47.315Z,100382.38
2023-02-20T20:15:49.488Z,100381.72
2023-02-20T20:18:53.378Z,100380.88
2023-02-20T20:21:55.945Z,100381.53
2023-02-20T20:24:58.951Z,100385.06
2023-02-20T20:28:02.807Z,100384.69
2023-02-20T20:31:06.143Z,100373.97
2023-02-20T20:34:09.166Z,100378.88
2023-02-20T20:37:12.116Z,100386.81
2023-02-20T20:40:16.790Z,100382.69
2023-02-20T20:43:19.473Z,100384.94
2023-02-20T20:46:23.847Z,100376.78
2023-02-20T20:49:26.335Z,100377.06
2023-02-20T20:52:30.841Z,100376.72
2023-02-20T20:55:34.048Z,100368.44
2023-02-20T20:58:36.965Z,100372.41
2023-02-20T21:01:39.608Z,100357.50
2023-02-20T21:04:42.588Z,100357.50
2023-02-20T21:07:45.354Z,100358.16
2023-02-20T21:10:47.634Z,100358.94
2023-02-20T21:13:50.140Z,100347.69
2023-02-20T21:16:52.314Z,100358.34
2023-02-20T21:19:55.174Z,100350.00
2023-02-20T21:23:01.737Z,100349.06
2023-02-20T21:26:04.220Z,100349.06
2023-02-20T21:29:07.512Z,100349.37
2023-02-20T21:32:10.082Z,100338.59
2023-02-20T21:35:18.023Z,100335.03
2023-02-20T21:38:20.572Z,100354.53
2023-02-20T21:41:42.532Z,100342.50
2023-02-20T21:44:47.754Z,100350.91
2023-02-20T21:47:49.932Z,100348.13
2023-02-20T21:50:52.464Z,100356.41
2023-02-20T21:53:54.679Z,100352.03
2023-02-20T21:56:57.812Z,100358.34
2023-02-20T22:00:00.338Z,100349.50
2023-02-20T22:03:03.563Z,100329.75
2023-02-20T22:06:06.398Z,100338.09
2023-02-20T22:09:27.885Z,100324.75
2023-02-20T22:12:49.048Z,100316.69
2023-02-20T22:16:10.026Z,100307.12
2023-02-20T22:19:30.922Z,100289.78
2023-02-20T22:22:51.853Z,100290.31
2023-02-20T22:26:12.744Z,100286.25
2023-02-20T22:29:33.584Z,100290.44
2023-02-20T22:32:54.702Z,100291.16
2023-02-20T22:36:15.420Z,100289.22
2023-02-20T22:39:37.344Z,100295.44
2023-02-20T22:42:58.139Z,100293.50
2023-02-20T22:46:19.587Z,100296.44
2023-02-20T22:49:40.548Z,100291.53
2023-02-20T22:53:02.118Z,100289.06
2023-02-20T22:56:23.451Z,100288.00
2023-02-20T22:59:44.419Z,100287.81
2023-02-20T23:03:05.242Z,100287.97
2023-02-20T23:06:26.219Z,100286.91
2023-02-20T23:09:47.084Z,100290.28
2023-02-20T23:13:08.450Z,100291.19
2023-02-20T23:16:29.171Z,100292.72
2023-02-20T23:19:50.623Z,100283.31
2023-02-20T23:23:12.130Z,100285.13
2023-02-20T23:26:33.091Z,100288.00
2023-02-20T23:29:54.231Z,100283.28
2023-02-20T23:33:15.511Z,100283.84
2023-02-20T23:36:36.797Z,100284.00
2023-02-20T23:39:57.879Z,100280.94
2023-02-20T23:43:18.700Z,100287.16
2023-02-20T23:46:39.496Z,100284.16
2023-02-20T23:50:00.471Z,100285.00
2023-02-20T23:53:22.360Z,100281.34
2023-02-20T23:56:44.086Z,100271.13
